Time;durP1;ratioP1;P1;durP2;ratioP2;P2;SDS_P1;SDS_P2;PMS_P1;PMS_P2;Temp;Humidity;BMP_temperature;BMP_pressure;BME280_temperature;BME280_humidity;BME280_pressure;Samples;Min_cycle;Max_cycle;Signal;HPM_P1;HPM_P2
2022/01/08 00:00:22;;;;;;;15.77;13.87;;;;;;;7.97;92.62;99841.97;5093313;28;20227;-70
2022/01/08 00:02:50;;;;;;;16.37;13.97;;;;;;;7.84;93.36;99821.34;5093020;28;20195;-70
2022/01/08 00:05:17;;;;;;;15.20;13.20;;;;;;;7.98;93.47;99838.31;5093376;28;20249;-70
2022/01/08 00:07:43;;;;;;;18.83;14.13;;;;;;;8.00;93.80;99841.66;5094477;28;20191;-70
2022/01/08 00:10:10;;;;;;;17.63;15.73;;;;;;;8.02;93.73;99839.63;5093250;28;20199;-70
2022/01/08 00:12:37;;;;;;;16.43;14.73;;;;;;;8.03;93.70;99841.28;5093706;28;20560;-69
2022/01/08 00:15:07;;;;;;;18.00;13.67;;;;;;;8.04;93.32;99848.25;5093456;28;20282;-70
2022/01/08 00:17:34;;;;;;;17.33;15.10;;;;;;;8.04;93.64;99848.25;5093124;28;20653;-70
2022/01/08 00:20:00;;;;;;;16.83;14.93;;;;;;;8.05;93.11;99847.25;5093346;28;20195;-69
2022/01/08 00:22:27;;;;;;;16.47;14.57;;;;;;;8.04;93.57;99845.59;5093046;28;20260;-70
2022/01/08 00:24:54;;;;;;;21.67;15.30;;;;;;;8.02;93.23;99832.53;5093226;28;20219;-69
2022/01/08 00:27:21;;;;;;;18.40;14.50;;;;;;;7.96;92.49;99829.75;5092928;28;20249;-69
2022/01/08 00:29:48;;;;;;;15.77;13.53;;;;;;;7.92;92.84;99833.75;5093223;28;20275;-70
2022/01/08 00:32:17;;;;;;;17.57;14.57;;;;;;;7.89;93.14;99829.63;5092847;28;20195;-69
2022/01/08 00:34:44;;;;;;;18.20;14.70;;;;;;;7.85;93.11;99816.91;5092804;28;20248;-69
2022/01/08 00:37:11;;;;;;;17.43;14.53;;;;;;;7.83;93.88;99825.00;5093898;28;20530;-70
2022/01/08 00:39:39;;;;;;;18.63;16.20;;;;;;;7.79;94.32;99802.53;5093154;28;20189;-70
2022/01/08 00:42:06;;;;;;;23.33;16.77;;;;;;;7.96;94.24;99819.19;5092710;28;20666;-70
2022/01/08 00:44:32;;;;;;;18.63;15.50;;;;;;;7.93;94.17;99816.88;5093144;28;20215;-69
2022/01/08 00:46:59;;;;;;;21.20;16.20;;;;;;;7.89;94.62;99812.91;5092639;28;20654;-69
2022/01/08 00:49:27;;;;;;;17.70;15.60;;;;;;;7.81;94.45;99815.59;5092392;28;20724;-70
2022/01/08 00:51:54;;;;;;;17.03;15.27;;;;;;;7.80;95.50;99808.66;5093029;28;20663;-69
2022/01/08 00:54:20;;;;;;;17.60;15.70;;;;;;;7.83;95.76;99797.72;5092806;28;20252;-69
2022/01/08 00:56:48;;;;;;;16.73;15.00;;;;;;;7.85;95.65;99801.03;5092348;28;20731;-69
2022/01/08 00:59:15;;;;;;;19.13;15.17;;;;;;;7.80;96.23;99803.38;5092772;28;20680;-69
2022/01/08 01:01:41;;;;;;;21.57;16.17;;;;;;;7.67;96.56;99803.09;5092988;28;20244;-69
2022/01/08 01:04:08;;;;;;;20.53;15.83;;;;;;;7.57;97.19;99802.44;5092605;28;20264;-69
2022/01/08 01:06:36;;;;;;;16.63;14.77;;;;;;;7.48;96.82;99798.97;5092347;28;20195;-69
2022/01/08 01:09:03;;;;;;;19.77;15.17;;;;;;;7.41;96.68;99797.19;5093408;28;20187;-69
2022/01/08 01:11:30;;;;;;;21.97;16.17;;;;;;;7.32;97.47;99793.75;5093155;28;20194;-69
2022/01/08 01:13:56;;;;;;;17.97;15.23;;;;;;;7.27;98.99;99789.97;5091909;28;20195;-69
2022/01/08 01:16:23;;;;;;;21.57;16.90;;;;;;;7.25;99.02;99797.22;5092240;28;20195;-69
2022/01/08 01:18:50;;;;;;;17.20;15.00;;;;;;;7.25;100.00;99787.47;5092154;28;20655;-70
2022/01/08 01:21:17;;;;;;;16.93;14.60;;;;;;;7.33;100.00;99776.06;5092168;28;20250;-70
2022/01/08 01:23:46;;;;;;;15.90;13.13;;;;;;;7.28;99.51;99783.66;5093181;28;20222;-69
2022/01/08 01:26:17;;;;;;;15.27;13.17;;;;;;;7.29;99.63;99772.09;5092083;28;20191;-70
2022/01/08 01:28:49;;;;;;;15.70;13.03;;;;;;;7.36;99.88;99775.72;5092680;28;20194;-70
2022/01/08 01:42:29;;;;;;;13.63;11.93;;;;;;;7.44;98.75;99744.00;5092674;28;20689;-70
2022/01/08 01:47:40;;;;;;;13.10;11.67;;;;;;;7.44;97.10;99733.44;5092103;28;20186;-70
2022/01/08 01:50:09;;;;;;;13.73;11.90;;;;;;;7.51;98.68;99734.41;5091885;28;20195;-70
2022/01/08 01:52:36;;;;;;;14.67;12.00;;;;;;;7.37;98.26;99732.44;5092193;28;20206;-70
2022/01/08 01:55:06;;;;;;;12.80;11.17;;;;;;;7.27;97.84;99737.13;5092945;28;20279;-70
2022/01/08 01:57:33;;;;;;;12.00;10.90;;;;;;;7.25;98.65;99742.56;5092104;28;20195;-70
2022/01/08 02:00:00;;;;;;;15.23;12.40;;;;;;;7.28;99.50;99742.25;5091780;28;20260;-70
2022/01/08 02:02:26;;;;;;;14.80;11.53;;;;;;;7.26;99.22;99748.69;5092287;28;20195;-70
2022/01/08 02:04:53;;;;;;;18.73;12.07;;;;;;;7.20;99.11;99742.25;5091663;28;20219;-70
2022/01/08 02:07:23;;;;;;;16.83;12.07;;;;;;;7.14;98.32;99742.09;5091976;28;20575;-69
2022/01/08 02:09:50;;;;;;;14.90;11.70;;;;;;;7.13;99.14;99729.88;5091733;28;20651;-70
2022/01/08 02:12:20;;;;;;;13.90;12.03;;;;;;;7.10;98.50;99722.31;5092289;28;20193;-70
2022/01/08 02:14:47;;;;;;;14.37;12.57;;;;;;;7.06;99.65;99707.78;5091942;28;20223;-70
2022/01/08 02:17:14;;;;;;;18.40;11.47;;;;;;;7.03;99.95;99714.22;5092744;28;20228;-70
2022/01/08 02:19:41;;;;;;;15.70;12.67;;;;;;;7.11;100.00;99710.75;5091595;28;20566;-70
2022/01/08 02:22:15;;;;;;;13.37;11.97;;;;;;;7.14;100.00;99711.22;5092183;28;20282;-70
2022/01/08 02:24:42;;;;;;;19.40;12.53;;;;;;;7.15;100.00;99712.84;5091544;28;20792;-70
2022/01/08 02:27:09;;;;;;;13.37;11.90;;;;;;;7.12;99.98;99707.94;5094515;28;20228;-70
2022/01/08 02:29:35;;;;;;;15.03;13.10;;;;;;;7.11;100.00;99702.81;5095503;28;20197;-70
2022/01/08 02:32:06;;;;;;;15.80;13.47;;;;;;;7.12;100.00;99700.00;5095535;28;20191;-70
2022/01/08 02:34:33;;;;;;;18.23;13.00;;;;;;;7.12;100.00;99696.53;5095509;28;20191;-70
2022/01/08 02:37:01;;;;;;;17.37;13.17;;;;;;;7.09;100.00;99696.84;5095423;28;20191;-70
2022/01/08 02:39:30;;;;;;;15.73;13.37;;;;;;;7.05;100.00;99691.09;5095406;28;20191;-70
2022/01/08 02:41:59;;;;;;;16.43;12.97;;;;;;;7.03;100.00;99692.28;5096027;28;20226;-70
2022/01/08 02:44:27;;;;;;;17.00;14.03;;;;;;;7.03;100.00;99693.09;5094870;28;20214;-70
2022/01/08 02:46:54;;;;;;;16.23;13.27;;;;;;;7.11;100.00;99693.06;5094906;28;20191;-70
2022/01/08 02:49:23;;;;;;;18.87;13.87;;;;;;;7.17;100.00;99688.91;5095160;28;20196;-70
2022/01/08 02:51:50;;;;;;;17.33;14.00;;;;;;;7.21;100.00;99696.34;5094817;28;20290;-70
2022/01/08 02:54:17;;;;;;;18.57;13.30;;;;;;;7.25;100.00;99681.81;5094761;28;20253;-70
2022/01/08 02:56:47;;;;;;;18.77;14.00;;;;;;;7.28;100.00;99685.91;5094724;28;20191;-70
2022/01/08 02:59:15;;;;;;;17.80;14.20;;;;;;;7.29;100.00;99680.47;5095875;28;20183;-70
2022/01/08 03:01:42;;;;;;;17.00;13.67;;;;;;;7.33;100.00;99675.66;5094608;28;20195;-70
2022/01/08 03:04:10;;;;;;;16.97;13.63;;;;;;;7.35;99.03;99678.97;5094497;28;20218;-70
2022/01/08 03:06:37;;;;;;;17.77;13.73;;;;;;;7.37;100.00;99682.25;5094567;28;20193;-70
2022/01/08 03:09:04;;;;;;;20.30;15.23;;;;;;;7.40;99.06;99676.63;5095631;28;20188;-70
2022/01/08 03:11:31;;;;;;;14.87;13.37;;;;;;;7.42;98.93;99672.81;5094779;28;20226;-70
2022/01/08 03:14:00;;;;;;;20.30;14.43;;;;;;;7.46;98.89;99670.66;5094594;28;20210;-70
2022/01/08 03:16:27;;;;;;;20.20;14.73;;;;;;;7.51;98.72;99676.25;5094488;28;20191;-71
2022/01/08 03:18:53;;;;;;;19.20;13.30;;;;;;;7.50;98.57;99669.31;5094211;28;20186;-70
2022/01/08 03:21:22;;;;;;;19.67;15.50;;;;;;;7.52;98.11;99680.56;5094692;28;20199;-69
2022/01/08 03:23:56;;;;;;;20.43;14.87;;;;;;;7.54;97.73;99676.72;5094112;28;20201;-69
2022/01/08 03:26:25;;;;;;;18.77;15.07;;;;;;;7.56;97.49;99669.44;5094471;28;20684;-70
2022/01/08 03:28:53;;;;;;;19.67;15.03;;;;;;;7.58;97.67;99671.91;5095225;28;20252;-70
2022/01/08 03:31:22;;;;;;;19.43;14.70;;;;;;;7.56;97.84;99668.63;5094058;28;20244;-70
2022/01/08 03:33:50;;;;;;;17.33;14.57;;;;;;;7.52;97.20;99677.91;5094582;28;20198;-70
2022/01/08 03:36:17;;;;;;;19.43;14.93;;;;;;;7.45;97.97;99676.94;5094234;28;20199;-70
2022/01/08 03:38:44;;;;;;;19.83;15.47;;;;;;;7.40;98.37;99674.00;5093479;28;20256;-70
2022/01/08 03:41:12;;;;;;;20.10;15.33;;;;;;;7.43;98.76;99679.75;5094313;28;20223;-69
2022/01/08 03:43:39;;;;;;;20.80;15.30;;;;;;;7.40;97.34;99668.69;5094334;28;20191;-69
2022/01/08 03:46:05;;;;;;;18.27;15.07;;;;;;;7.40;98.44;99671.34;5093689;28;20222;-71
2022/01/08 03:48:44;;;;;;;22.67;16.43;;;;;;;7.41;98.64;99667.69;5094031;28;20198;-70
2022/01/08 03:51:13;;;;;;;19.57;15.77;;;;;;;7.41;97.92;99667.69;5093744;28;20183;-70
2022/01/08 03:53:40;;;;;;;21.33;16.50;;;;;;;7.39;98.53;99661.78;5093630;28;20261;-69
2022/01/08 03:56:07;;;;;;;19.37;15.50;;;;;;;7.43;98.89;99652.50;5093529;28;20659;-70
2022/01/08 03:58:34;;;;;;;21.73;15.70;;;;;;;7.43;98.77;99652.50;5093537;28;20677;-69
2022/01/08 04:01:01;;;;;;;21.93;16.63;;;;;;;7.48;98.01;99650.16;5094206;28;20587;-70
2022/01/08 04:03:28;;;;;;;22.33;16.70;;;;;;;7.47;97.38;99653.81;5093758;28;20281;-70
2022/01/08 04:05:56;;;;;;;20.70;16.57;;;;;;;7.39;97.79;99651.22;5093558;28;20268;-70
2022/01/08 04:08:23;;;;;;;23.17;16.97;;;;;;;7.40;98.27;99644.91;5093376;28;20191;-70
2022/01/08 04:10:50;;;;;;;22.27;16.40;;;;;;;7.40;99.20;99658.13;5094171;28;20191;-69
2022/01/08 04:13:21;;;;;;;21.73;16.27;;;;;;;7.34;98.46;99659.63;5093421;28;20198;-70
2022/01/08 04:15:50;;;;;;;23.30;16.63;;;;;;;7.38;98.38;99649.53;5092789;28;20194;-71
2022/01/08 04:18:17;;;;;;;23.17;16.73;;;;;;;7.34;98.84;99648.25;5092835;28;20201;-69
2022/01/08 04:20:57;;;;;;;24.80;17.97;;;;;;;7.33;98.72;99654.53;5093653;28;20195;-69
2022/01/08 04:23:25;;;;;;;26.23;17.90;;;;;;;7.29;98.41;99650.56;5093118;28;20187;-70
2022/01/08 04:25:52;;;;;;;24.00;17.43;;;;;;;7.25;98.57;99650.09;5093308;28;20222;-70
2022/01/08 04:28:19;;;;;;;23.80;18.23;;;;;;;7.30;99.00;99660.13;5093279;28;20191;-69
2022/01/08 04:30:46;;;;;;;24.90;17.47;;;;;;;7.34;98.43;99658.81;5093181;28;20191;-69
2022/01/08 04:33:13;;;;;;;22.20;17.47;;;;;;;7.33;98.66;99658.00;5092904;28;20565;-69
2022/01/08 04:35:40;;;;;;;24.63;17.53;;;;;;;7.30;99.29;99654.84;5092744;28;20199;-70
2022/01/08 04:38:07;;;;;;;25.37;17.27;;;;;;;7.26;99.97;99653.59;5093139;28;20191;-69
2022/01/08 04:40:36;;;;;;;26.13;17.57;;;;;;;7.25;99.79;99657.19;5093062;28;20286;-70
2022/01/08 04:43:03;;;;;;;21.27;17.17;;;;;;;7.26;100.00;99656.22;5092963;28;20191;-70
2022/01/08 04:45:30;;;;;;;25.30;17.83;;;;;;;7.28;99.99;99654.22;5092530;28;20219;-70
2022/01/08 04:47:58;;;;;;;29.63;18.90;;;;;;;7.27;98.58;99655.22;5092933;28;20256;-70
2022/01/08 04:50:25;;;;;;;26.30;16.97;;;;;;;7.27;98.68;99657.88;5092667;28;20248;-70
2022/01/08 04:52:52;;;;;;;22.17;16.80;;;;;;;7.29;99.13;99656.69;5092820;28;20245;-70
2022/01/08 04:55:18;;;;;;;27.40;17.83;;;;;;;7.29;99.97;99650.56;5092997;28;20190;-70
2022/01/08 04:57:47;;;;;;;23.43;17.47;;;;;;;7.23;98.80;99656.56;5092477;28;20655;-69
2022/01/08 05:00:16;;;;;;;22.23;16.67;;;;;;;7.19;99.60;99650.78;5092432;28;20202;-70
2022/01/08 05:02:43;;;;;;;25.50;18.60;;;;;;;7.20;100.00;99651.59;5092719;28;20249;-70
2022/01/08 05:05:11;;;;;;;29.30;20.30;;;;;;;7.23;100.00;99640.72;5093396;28;20219;-70
2022/01/08 05:07:37;;;;;;;31.07;19.13;;;;;;;7.22;100.00;99647.00;5092641;28;20275;-70
2022/01/08 05:10:06;;;;;;;28.87;20.07;;;;;;;7.26;100.00;99637.72;5092610;28;20708;-70
2022/01/08 05:12:32;;;;;;;28.20;20.23;;;;;;;7.27;99.86;99634.88;5092248;28;20259;-70
2022/01/08 05:15:01;;;;;;;30.53;20.10;;;;;;;7.22;98.98;99625.84;5092196;28;20620;-71
2022/01/08 05:17:32;;;;;;;28.83;18.30;;;;;;;7.21;99.24;99627.66;5092742;28;20195;-70
2022/01/08 05:20:02;;;;;;;28.90;19.70;;;;;;;7.19;99.76;99627.00;5092448;28;20637;-70
2022/01/08 05:22:31;;;;;;;28.40;19.37;;;;;;;7.22;100.00;99626.66;5092429;28;20195;-70
2022/01/08 05:24:58;;;;;;;25.73;19.37;;;;;;;7.26;100.00;99629.81;5092340;28;20256;-71
2022/01/08 05:27:25;;;;;;;29.67;19.73;;;;;;;7.25;99.98;99622.84;5092435;28;20594;-70
2022/01/08 05:29:54;;;;;;;27.93;19.03;;;;;;;7.27;100.00;99631.44;5092394;28;20189;-70
2022/01/08 05:32:23;;;;;;;28.43;18.90;;;;;;;7.28;100.00;99622.50;5092086;28;20287;-71
2022/01/08 05:34:52;;;;;;;26.53;17.73;;;;;;;7.19;99.38;99618.28;5091959;28;20636;-71
2022/01/08 05:37:20;;;;;;;26.30;18.80;;;;;;;7.20;98.67;99614.63;5092265;28;20248;-71
2022/01/08 05:39:48;;;;;;;27.47;19.27;;;;;;;7.29;100.00;99625.00;5092856;28;20187;-71
2022/01/08 05:42:15;;;;;;;28.10;18.83;;;;;;;7.32;99.59;99623.81;5092078;28;20187;-70
2022/01/08 05:44:42;;;;;;;26.20;19.03;;;;;;;7.28;99.18;99623.34;5092117;28;20249;-70
2022/01/08 05:47:09;;;;;;;25.30;17.87;;;;;;;7.28;99.55;99623.34;5091816;28;20731;-70
2022/01/08 05:49:37;;;;;;;29.10;19.87;;;;;;;7.34;100.00;99633.22;5092151;28;20252;-70
2022/01/08 05:52:04;;;;;;;26.87;20.17;;;;;;;7.33;99.53;99633.38;5092711;28;20256;-70
2022/01/08 05:54:31;;;;;;;29.67;20.63;;;;;;;7.32;99.59;99635.22;5092625;28;20191;-69
2022/01/08 05:56:58;;;;;;;33.83;22.03;;;;;;;7.28;99.80;99631.28;5091740;28;20240;-70
2022/01/08 05:59:26;;;;;;;29.73;21.60;;;;;;;7.34;100.00;99642.94;5091731;28;20682;-70
2022/01/08 06:01:53;;;;;;;31.10;20.87;;;;;;;7.38;99.51;99644.25;5094552;28;20613;-70
2022/01/08 06:04:20;;;;;;;29.83;19.67;;;;;;;7.38;99.89;99644.25;5096063;28;20191;-69
2022/01/08 06:06:48;;;;;;;29.00;20.50;;;;;;;7.36;99.01;99640.97;5095952;28;20283;-70
2022/01/08 06:09:15;;;;;;;34.43;21.83;;;;;;;7.25;99.10;99644.81;5095555;28;20268;-69
2022/01/08 06:11:41;;;;;;;33.27;22.67;;;;;;;7.24;99.09;99645.00;5095538;28;20739;-69
2022/01/08 06:14:08;;;;;;;39.97;23.57;;;;;;;7.05;99.29;99642.72;5095843;28;20257;-70
2022/01/08 06:16:37;;;;;;;35.60;23.27;;;;;;;7.00;100.00;99642.41;5095318;28;20199;-70
2022/01/08 06:19:04;;;;;;;37.03;21.90;;;;;;;7.04;100.00;99646.38;5095975;28;20192;-70
2022/01/08 06:21:31;;;;;;;45.00;26.83;;;;;;;7.04;100.00;99646.38;5095411;28;20252;-70
2022/01/08 06:23:59;;;;;;;35.43;23.43;;;;;;;6.96;100.00;99649.03;5095368;28;20195;-70
2022/01/08 06:26:26;;;;;;;42.70;27.33;;;;;;;6.90;100.00;99649.72;5095488;28;20218;-70
2022/01/08 06:28:53;;;;;;;39.13;25.87;;;;;;;6.87;100.00;99652.69;5095450;28;20187;-69
2022/01/08 06:31:20;;;;;;;49.67;28.13;;;;;;;6.85;100.00;99652.03;5095230;28;20195;-70
2022/01/08 06:33:47;;;;;;;49.80;30.07;;;;;;;6.84;100.00;99648.56;5095178;28;20228;-72
2022/01/08 06:36:14;;;;;;;42.10;29.33;;;;;;;6.83;100.00;99646.94;5095986;28;20195;-71
2022/01/08 06:38:41;;;;;;;37.47;22.93;;;;;;;6.80;100.00;99649.06;5095385;28;20206;-72
2022/01/08 06:41:09;;;;;;;33.43;22.83;;;;;;;6.78;100.00;99645.78;5095215;28;20227;-71
2022/01/08 06:43:36;;;;;;;31.03;21.90;;;;;;;6.77;100.00;99644.97;5095549;28;20260;-70
2022/01/08 06:46:02;;;;;;;32.40;21.00;;;;;;;6.75;100.00;99646.13;5094920;28;20651;-72
2022/01/08 06:48:29;;;;;;;36.80;21.67;;;;;;;6.71;100.00;99643.00;5095229;28;20193;-71
2022/01/08 06:50:56;;;;;;;35.93;22.30;;;;;;;6.67;100.00;99643.50;5094686;28;20195;-71
2022/01/08 06:53:22;;;;;;;36.27;23.17;;;;;;;6.62;100.00;99635.25;5094611;28;20661;-68
2022/01/08 06:55:49;;;;;;;54.80;33.77;;;;;;;6.65;100.00;99637.56;5095036;28;20259;-69
2022/01/08 06:58:20;;;;;;;56.53;30.70;;;;;;;6.67;100.00;99646.97;5094664;28;20739;-69
2022/01/08 07:00:47;;;;;;;57.73;31.07;;;;;;;6.70;100.00;99637.88;5095591;28;20187;-69
2022/01/08 07:03:14;;;;;;;50.53;30.27;;;;;;;6.69;100.00;99641.53;5097786;28;20678;-69
2022/01/08 07:05:41;;;;;;;46.40;31.43;;;;;;;6.68;100.00;99629.28;5111092;28;20218;-68
2022/01/08 07:08:08;;;;;;;55.67;32.10;;;;;;;6.70;100.00;99632.59;5095511;28;20219;-68
2022/01/08 07:10:35;;;;;;;45.47;28.40;;;;;;;6.71;100.00;99636.88;5098385;28;20191;-68
2022/01/08 07:13:01;;;;;;;48.07;27.17;;;;;;;6.71;100.00;99635.09;5114862;28;20257;-68
2022/01/08 07:15:30;;;;;;;34.20;22.37;;;;;;;6.65;100.00;99632.28;5114776;28;20281;-68
2022/01/08 07:17:56;;;;;;;41.60;24.10;;;;;;;6.59;100.00;99635.59;5114750;28;20189;-67
2022/01/08 07:20:23;;;;;;;42.30;24.03;;;;;;;6.65;100.00;99634.94;5099807;27;20191;-68
2022/01/08 07:22:50;;;;;;;38.37;22.20;;;;;;;6.65;100.00;99627.00;5094104;28;20191;-68
2022/01/08 07:25:17;;;;;;;47.53;25.57;;;;;;;6.73;100.00;99632.28;5094143;28;20196;-68
2022/01/08 07:27:44;;;;;;;52.80;32.53;;;;;;;6.68;100.00;99634.56;5094235;28;20192;-69
2022/01/08 07:30:11;;;;;;;56.70;33.27;;;;;;;6.73;100.00;99632.28;5094803;28;20252;-69
2022/01/08 07:32:44;;;;;;;58.23;31.40;;;;;;;6.82;100.00;99626.78;5094304;28;20254;-69
2022/01/08 07:35:12;;;;;;;59.10;33.87;;;;;;;6.80;100.00;99631.44;5094238;28;20272;-68
2022/01/08 07:37:39;;;;;;;44.17;27.50;;;;;;;6.79;100.00;99628.94;5109668;28;20190;-68
2022/01/08 07:40:07;;;;;;;44.23;25.40;;;;;;;6.81;100.00;99625.16;5114221;28;20276;-67
2022/01/08 07:42:34;;;;;;;40.40;24.33;;;;;;;6.80;100.00;99628.78;5113834;28;20196;-67
2022/01/08 07:45:01;;;;;;;38.67;23.70;;;;;;;6.83;100.00;99627.63;5114027;28;20618;-66
2022/01/08 07:47:28;;;;;;;41.27;25.30;;;;;;;6.90;100.00;99621.50;5113609;28;20758;-67
2022/01/08 07:49:56;;;;;;;43.70;25.53;;;;;;;6.97;100.00;99634.84;5114227;28;20190;-68
2022/01/08 07:52:23;;;;;;;41.73;24.60;;;;;;;7.10;100.00;99625.38;5113976;27;20198;-68
2022/01/08 07:54:49;;;;;;;43.43;26.73;;;;;;;7.16;100.00;99623.88;5113774;28;20617;-66
2022/01/08 07:57:16;;;;;;;48.40;26.90;;;;;;;7.16;100.00;99629.16;5114151;28;20206;-69
2022/01/08 07:59:43;;;;;;;43.57;24.90;;;;;;;7.17;100.00;99625.53;5114290;28;20202;-68
2022/01/08 08:02:10;;;;;;;42.57;26.67;;;;;;;7.14;100.00;99628.53;5114427;28;20191;-67
2022/01/08 08:04:37;;;;;;;39.37;24.70;;;;;;;7.12;100.00;99622.59;5114137;28;20194;-67
2022/01/08 08:07:05;;;;;;;44.47;25.17;;;;;;;7.23;100.00;99620.38;5113531;28;20243;-67
2022/01/08 08:09:32;;;;;;;48.60;27.70;;;;;;;7.26;100.00;99620.03;5113722;28;20194;-66
2022/01/08 08:11:58;;;;;;;49.73;29.30;;;;;;;7.25;100.00;99620.22;5096096;28;20251;-66
2022/01/08 08:14:25;;;;;;;51.60;29.33;;;;;;;7.25;100.00;99622.84;5092860;28;20190;-66
2022/01/08 08:16:52;;;;;;;51.00;29.83;;;;;;;7.26;100.00;99619.25;5092979;28;20758;-67
2022/01/08 08:19:19;;;;;;;53.50;31.53;;;;;;;7.22;100.00;99610.00;5093168;28;20247;-67
2022/01/08 08:21:45;;;;;;;45.40;29.73;;;;;;;7.30;100.00;99616.06;5092647;28;20188;-68
2022/01/08 08:24:14;;;;;;;38.80;25.00;;;;;;;7.32;100.00;99607.97;5092057;28;20195;-67
2022/01/08 08:26:41;;;;;;;40.80;26.27;;;;;;;7.43;100.00;99618.16;5093094;28;20692;-66
2022/01/08 08:29:08;;;;;;;46.67;29.83;;;;;;;7.51;100.00;99607.56;5092392;28;20723;-67
2022/01/08 08:31:34;;;;;;;43.77;25.23;;;;;;;7.55;100.00;99606.22;5092726;28;20195;-65
2022/01/08 08:34:01;;;;;;;35.63;22.53;;;;;;;7.61;100.00;99610.78;5092782;28;20190;-67
2022/01/08 08:36:28;;;;;;;36.63;23.93;;;;;;;7.62;100.00;99607.97;5093042;28;20248;-66
2022/01/08 08:38:55;;;;;;;43.77;30.50;;;;;;;7.65;100.00;99612.91;5092808;28;20253;-66
2022/01/08 08:41:23;;;;;;;42.30;28.40;;;;;;;7.71;100.00;99604.28;5092902;28;20729;-66
2022/01/08 08:43:49;;;;;;;44.13;25.60;;;;;;;7.78;100.00;99599.94;5092450;28;20220;-66
2022/01/08 08:46:16;;;;;;;44.63;27.20;;;;;;;7.84;100.00;99598.41;5092310;28;20646;-66
2022/01/08 08:48:44;;;;;;;58.17;33.20;;;;;;;7.83;100.00;99596.75;5092294;28;20191;-68
2022/01/08 08:51:11;;;;;;;37.57;24.37;;;;;;;7.75;100.00;99591.50;5081387;28;20650;-66
2022/01/08 08:53:38;;;;;;;37.03;23.30;;;;;;;7.73;100.00;99586.44;5084617;28;20199;-67
2022/01/08 08:56:05;;;;;;;48.33;32.30;;;;;;;7.75;100.00;99594.16;5092430;28;20199;-68
2022/01/08 08:58:33;;;;;;;40.07;28.37;;;;;;;7.80;100.00;99586.53;5091321;28;20201;-69
2022/01/08 09:01:00;;;;;;;37.27;24.80;;;;;;;7.88;100.00;99578.56;5087753;28;20199;-68
2022/01/08 09:03:27;;;;;;;30.20;22.17;;;;;;;7.95;100.00;99577.66;5087435;28;20682;-69
2022/01/08 09:05:53;;;;;;;30.27;21.43;;;;;;;7.93;100.00;99578.84;5092110;28;20253;-68
2022/01/08 09:08:20;;;;;;;33.03;22.27;;;;;;;7.81;100.00;99573.16;5090598;28;20249;-68
2022/01/08 09:10:47;;;;;;;34.27;24.07;;;;;;;7.83;100.00;99570.31;5099392;28;20220;-68
2022/01/08 09:13:13;;;;;;;34.77;24.73;;;;;;;7.84;100.00;99567.50;5111630;28;20251;-69
2022/01/08 09:15:42;;;;;;;23.87;19.17;;;;;;;7.88;100.00;99554.75;5095003;28;20632;-69
2022/01/08 09:18:09;;;;;;;23.87;19.67;;;;;;;7.90;100.00;99556.22;5092637;28;20256;-69
2022/01/08 09:20:37;;;;;;;23.53;18.10;;;;;;;7.99;100.00;99549.03;5091976;28;20731;-69
2022/01/08 09:23:04;;;;;;;22.83;17.73;;;;;;;7.99;100.00;99541.09;5092281;28;20252;-68
2022/01/08 09:25:31;;;;;;;28.63;19.50;;;;;;;8.01;100.00;99541.75;5091867;28;20215;-67
2022/01/08 09:27:58;;;;;;;24.40;17.90;;;;;;;8.07;99.67;99541.03;5092125;28;20223;-66
2022/01/08 09:30:26;;;;;;;23.67;18.17;;;;;;;8.04;98.62;99531.63;5092179;28;20190;-67
2022/01/08 09:32:54;;;;;;;24.20;17.47;;;;;;;8.06;99.16;99534.09;5091797;28;20222;-66
2022/01/08 09:35:21;;;;;;;49.57;27.03;;;;;;;8.06;99.15;99528.81;5092248;28;20199;-67
2022/01/08 09:37:47;;;;;;;62.87;32.40;;;;;;;8.05;100.00;99522.69;5096101;28;20199;-67
2022/01/08 09:40:16;;;;;;;48.63;25.77;;;;;;;8.05;99.35;99516.59;5095574;28;20230;-67
2022/01/08 09:42:44;;;;;;;34.03;22.53;;;;;;;8.06;100.00;99510.28;5095842;28;20191;-67
2022/01/08 09:45:12;;;;;;;31.37;21.87;;;;;;;8.09;99.91;99512.59;5095572;28;20557;-68
2022/01/08 09:47:39;;;;;;;42.60;26.97;;;;;;;8.15;100.00;99496.81;5096477;28;20275;-66
2022/01/08 09:50:08;;;;;;;36.73;24.37;;;;;;;8.24;100.00;99493.09;5095917;28;20195;-67
2022/01/08 09:52:36;;;;;;;35.47;23.93;;;;;;;8.28;100.00;99498.84;5095874;28;20187;-67
2022/01/08 09:55:02;;;;;;;41.93;24.00;;;;;;;8.30;99.77;99488.91;5095571;28;20195;-68
2022/01/08 09:57:29;;;;;;;34.97;24.13;;;;;;;8.33;99.30;99483.28;5095569;28;20629;-68
2022/01/08 09:59:56;;;;;;;37.37;24.03;;;;;;;8.39;99.61;99472.78;5090777;28;20211;-67
2022/01/08 10:02:24;;;;;;;35.13;24.23;;;;;;;8.47;99.87;99474.50;5095228;28;20252;-68
2022/01/08 10:04:51;;;;;;;37.33;23.90;;;;;;;8.50;98.39;99468.84;5095112;28;20220;-67
2022/01/08 10:07:21;;;;;;;31.83;23.13;;;;;;;8.50;99.16;99464.34;5095426;28;20251;-67
2022/01/08 10:10:12;;;;;;;33.37;23.40;;;;;;;8.60;99.15;99458.78;5095131;28;20256;-67
2022/01/08 10:12:44;;;;;;;33.00;21.97;;;;;;;8.68;98.44;99458.69;5075085;28;20657;-68
2022/01/08 10:17:57;;;;;;;32.37;21.90;;;;;;;8.89;97.59;99450.78;5115867;28;20212;-68
2022/01/08 10:20:37;;;;;;;29.90;22.23;;;;;;;8.96;96.71;99454.34;5115802;28;20194;-68
2022/01/08 10:23:14;;;;;;;33.73;22.93;;;;;;;9.01;96.00;99451.94;5116417;27;20186;-67
2022/01/08 10:25:43;;;;;;;29.37;22.10;;;;;;;9.09;95.62;99438.59;5096969;28;20186;-67
2022/01/08 10:28:10;;;;;;;25.00;20.27;;;;;;;9.13;95.15;99442.50;5082692;28;20302;-67
2022/01/08 10:30:37;;;;;;;14.23;12.77;;;;;;;9.17;94.15;99444.59;5075048;28;20200;-68
2022/01/08 10:33:04;;;;;;;18.87;15.10;;;;;;;9.08;92.71;99439.59;5073150;28;20204;-68
2022/01/08 10:35:52;;;;;;;21.50;15.80;;;;;;;9.16;93.97;99437.66;5074600;28;20732;-72
2022/01/08 10:38:20;;;;;;;18.67;15.63;;;;;;;9.25;94.52;99438.34;5070491;28;20655;-68
2022/01/08 10:40:47;;;;;;;18.63;15.57;;;;;;;9.34;94.94;99432.75;5073946;28;20297;-67
2022/01/08 10:43:22;;;;;;;20.33;15.57;;;;;;;9.31;92.74;99416.41;5074822;28;20192;-69
2022/01/08 10:45:49;;;;;;;16.87;13.63;;;;;;;9.36;92.83;99424.59;5073645;28;20756;-68
2022/01/08 10:48:28;;;;;;;16.27;12.93;;;;;;;9.35;93.15;99417.69;5074030;28;20281;-67
2022/01/08 10:51:09;;;;;;;14.83;13.33;;;;;;;9.38;92.19;99415.44;5074556;28;20179;-66
2022/01/08 10:56:32;;;;;;;15.67;12.77;;;;;;;9.81;94.45;99410.91;5109486;27;20547;-73
2022/01/08 10:59:02;;;;;;;13.23;12.03;;;;;;;9.75;90.49;99406.38;5108480;28;20202;-73
2022/01/08 11:01:43;;;;;;;16.27;13.07;;;;;;;9.60;89.49;99400.34;5109618;28;20198;-72
2022/01/08 11:04:12;;;;;;;14.47;13.07;;;;;;;9.63;90.08;99394.63;5109240;28;20646;-71
2022/01/08 11:06:50;;;;;;;14.50;12.50;;;;;;;9.76;90.73;99389.47;5109213;28;20195;-72
2022/01/08 11:09:17;;;;;;;13.10;11.43;;;;;;;9.77;89.22;99389.25;5109894;28;20182;-72
2022/01/08 11:11:45;;;;;;;14.70;11.60;;;;;;;9.75;89.23;99390.44;5109433;28;20196;-74
2022/01/08 11:14:23;;;;;;;15.97;13.30;;;;;;;9.78;89.45;99387.41;5109134;28;20550;-73
2022/01/08 11:16:51;;;;;;;19.10;14.63;;;;;;;9.31;90.18;99380.09;5109140;28;20598;-72
2022/01/08 11:19:18;;;;;;;16.87;14.17;;;;;;;9.21;91.21;99384.09;5109848;28;20191;-73
2022/01/08 11:21:49;;;;;;;24.93;19.23;;;;;;;9.23;93.09;99387.38;5109511;28;20255;-71
2022/01/08 11:24:19;;;;;;;21.93;17.17;;;;;;;9.12;92.45;99374.63;5109343;28;20222;-71
2022/01/08 11:26:50;;;;;;;22.40;16.97;;;;;;;8.95;93.86;99375.91;5109116;28;20187;-71
2022/01/08 11:29:21;;;;;;;22.73;16.70;;;;;;;9.01;95.11;99372.47;5108973;28;20232;-70
2022/01/08 11:31:55;;;;;;;22.07;17.20;;;;;;;9.03;94.55;99365.97;5105436;28;20223;-78
2022/01/08 11:34:23;;;;;;;25.23;18.93;;;;;;;8.88;93.93;99369.69;5097409;28;20253;-71
2022/01/08 11:36:51;;;;;;;22.57;17.10;;;;;;;8.81;95.06;99366.16;5100566;28;20226;-73
2022/01/08 11:39:19;;;;;;;28.77;18.87;;;;;;;8.65;94.62;99361.91;5108301;28;20910;-74
2022/01/08 11:41:48;;;;;;;27.87;18.73;;;;;;;8.40;94.52;99341.25;5107878;28;20661;-69
2022/01/08 11:44:17;;;;;;;23.90;18.60;;;;;;;8.55;96.05;99355.28;5108192;28;20241;-71